Time;durP1;ratioP1;P1;durP2;ratioP2;P2;SDS_P1;SDS_P2;PMS_P1;PMS_P2;Temp;Humidity;BMP_temperature;BMP_pressure;BME280_temperature;BME280_humidity;BME280_pressure;Samples;Min_cycle;Max_cycle;Signal;HPM_P1;HPM_P2
2022/03/13 00:00:38;;;;;;;;;6.67;4.00;;;;;14.32;36.74;99497.22;5056115;28;45404;-76
2022/03/13 00:03:09;;;;;;;;;14.50;13.75;;;;;14.23;36.76;99477.97;5055454;28;45621;-70
2022/03/13 00:05:36;;;;;;;;;4.00;3.00;;;;;14.32;36.47;99501.56;5054871;28;45977;-70
2022/03/13 00:08:14;;;;;;;;;4.00;2.00;;;;;14.30;36.58;99495.44;5055253;28;45557;-70
2022/03/13 00:10:41;;;;;;;;;1.00;1.00;;;;;14.19;36.90;99484.13;5055639;28;45581;-70
2022/03/13 00:13:14;;;;;;;;;3.00;2.00;;;;;14.13;36.45;99485.84;5055994;28;45434;-69
2022/03/13 00:15:41;;;;;;;;;3.00;2.67;;;;;14.11;36.43;99492.00;5053104;28;45531;-70
2022/03/13 00:18:08;;;;;;;;;3.33;3.00;;;;;14.05;36.91;99489.38;5055133;28;45406;-70
2022/03/13 00:20:35;;;;;;;;;3.25;3.00;;;;;14.05;37.15;99485.00;5055302;28;45357;-70
2022/03/13 00:23:01;;;;;;;;;2.33;2.33;;;;;14.13;37.12;99504.25;5055385;28;45382;-69
2022/03/13 00:25:27;;;;;;;;;1.33;1.33;;;;;14.08;37.22;99495.47;5055508;28;45430;-70
2022/03/13 00:27:53;;;;;;;;;2.00;2.00;;;;;14.15;36.80;99482.38;5055089;28;45506;-70
2022/03/13 00:30:19;;;;;;;;;3.00;3.00;;;;;14.20;37.18;99475.34;5037672;28;45561;-70
2022/03/13 00:32:45;;;;;;;;;1.67;1.67;;;;;14.26;36.79;99476.19;5055840;28;45521;-69
2022/03/13 00:35:12;;;;;;;;;2.25;2.00;;;;;14.25;36.72;99470.97;5055387;28;48244;-70
2022/03/13 00:37:38;;;;;;;;;2.75;2.25;;;;;14.23;36.84;99470.97;5052311;28;45348;-70
2022/03/13 00:40:05;;;;;;;;;1.67;1.00;;;;;14.38;36.74;99492.81;5055645;28;45425;-70
2022/03/13 00:42:31;;;;;;;;;1.33;1.33;;;;;14.37;36.44;99484.06;5055465;28;45514;-69
2022/03/13 00:44:57;;;;;;;;;2.00;2.00;;;;;14.36;37.02;99486.69;5054705;28;46240;-70
2022/03/13 00:47:23;;;;;;;;;3.00;2.00;;;;;14.36;36.90;99492.81;5054819;28;45671;-70
2022/03/13 00:49:50;;;;;;;;;0.00;0.00;;;;;14.41;37.63;99501.56;5054949;28;45497;-70
2022/03/13 00:52:17;;;;;;;;;0.00;0.00;;;;;14.43;37.52;99515.56;5054894;28;45507;-70
2022/03/13 00:54:42;;;;;;;;;0.00;0.00;;;;;14.38;38.38;99513.84;5055340;28;46092;-70
2022/03/13 00:57:08;;;;;;;;;0.00;0.00;;;;;14.42;39.04;99539.22;5055691;28;45413;-70
2022/03/13 00:59:34;;;;;;;;;2.00;1.00;;;;;14.38;44.55;99548.00;5055400;28;45413;-70
2022/03/13 01:02:00;;;;;;;;;3.00;1.00;;;;;14.28;46.86;99557.63;5057107;28;45394;-70
2022/03/13 01:04:26;;;;;;;;;2.00;0.67;;;;;14.27;46.87;99566.41;5056117;28;46356;-70
2022/03/13 01:06:51;;;;;;;;;1.00;0.67;;;;;14.16;47.46;99555.00;5056087;28;45460;-70
2022/03/13 01:09:17;;;;;;;;;1.67;1.00;;;;;14.02;50.69;99548.00;5056502;28;45390;-70
2022/03/13 01:11:43;;;;;;;;;1.00;0.33;;;;;13.82;50.70;99519.13;5056587;28;45604;-70
2022/03/13 01:14:09;;;;;;;;;1.00;1.00;;;;;13.91;51.74;99549.78;5055904;28;45602;-70
2022/03/13 01:16:37;;;;;;;;;2.33;1.00;;;;;13.84;52.93;99545.38;5055759;28;45562;-70
2022/03/13 01:19:03;;;;;;;;;2.00;1.00;;;;;13.66;53.05;99535.75;5056224;28;45357;-69
2022/03/13 01:21:32;;;;;;;;;2.00;1.00;;;;;13.65;55.04;99544.50;5055956;28;45488;-70
2022/03/13 01:23:57;;;;;;;;;3.67;1.00;;;;;13.63;53.81;99552.38;5055704;28;45540;-71
2022/03/13 01:26:23;;;;;;;;;1.33;1.00;;;;;13.56;57.11;99540.09;5055683;28;45358;-71
2022/03/13 01:28:50;;;;;;;;;2.67;1.00;;;;;13.51;54.50;99539.25;5056781;28;45412;-71
2022/03/13 01:31:19;;;;;;;;;2.67;2.00;;;;;13.44;56.63;99535.69;5056956;28;45508;-70
2022/03/13 01:33:45;;;;;;;;;3.33;1.67;;;;;13.39;56.00;99526.97;5056241;28;46214;-70
2022/03/13 01:36:12;;;;;;;;;0.00;0.00;;;;;13.31;54.72;99533.94;5062510;28;45450;-70
2022/03/13 01:38:38;;;;;;;;;2.00;1.00;;;;;13.30;56.42;99532.19;5055032;28;45414;-70
2022/03/13 01:41:05;;;;;;;;;4.00;1.00;;;;;13.23;57.23;99530.38;5056138;28;45304;-70
2022/03/13 01:43:31;;;;;;;;;2.00;1.00;;;;;13.20;57.69;99538.25;5056015;28;46197;-70
2022/03/13 01:46:01;;;;;;;;;1.33;1.00;;;;;13.16;58.01;99526.00;5056015;28;45340;-69
2022/03/13 01:48:28;;;;;;;;;1.00;1.00;;;;;13.08;53.82;99526.84;5055677;28;46033;-70
2022/03/13 01:50:54;;;;;;;;;0.67;0.33;;;;;13.02;56.67;99515.47;5056066;28;45464;-70
2022/03/13 01:53:21;;;;;;;;;1.50;1.00;;;;;12.99;56.66;99532.06;5056131;28;45410;-70
2022/03/13 01:55:48;;;;;;;;;1.00;1.00;;;;;12.87;57.50;99518.88;5055395;28;45448;-70
2022/03/13 01:58:15;;;;;;;;;0.00;0.00;;;;;12.81;57.35;99531.97;5055981;28;45496;-70
2022/03/13 02:00:41;;;;;;;;;1.67;1.00;;;;;12.71;60.36;99521.47;5055766;28;45643;-70
2022/03/13 02:03:07;;;;;;;;;3.00;1.00;;;;;12.69;60.02;99525.81;5055526;28;46111;-70
2022/03/13 02:05:34;;;;;;;;;1.67;1.00;;;;;12.70;58.14;99531.91;5056007;28;45378;-70
2022/03/13 02:08:11;;;;;;;;;2.00;1.00;;;;;12.58;59.54;99521.38;5055547;28;45512;-70
2022/03/13 02:10:37;;;;;;;;;0.67;0.00;;;;;12.53;58.70;99526.56;5055804;28;46206;-70
2022/03/13 02:13:02;;;;;;;;;1.00;0.75;;;;;12.27;60.07;99495.00;5055462;28;45402;-70
2022/03/13 02:15:30;;;;;;;;;0.50;0.50;;;;;12.44;61.38;99530.03;5056729;28;45355;-70
2022/03/13 02:17:56;;;;;;;;;1.25;1.00;;;;;12.41;61.58;99534.38;5059196;28;45519;-70
2022/03/13 02:20:26;;;;;;;;;1.00;1.00;;;;;12.31;60.89;99512.47;5060033;28;45524;-71
2022/03/13 02:22:58;;;;;;;;;1.00;0.00;;;;;12.31;59.24;99525.56;5060370;28;45543;-70
2022/03/13 02:25:24;;;;;;;;;2.00;0.00;;;;;12.28;62.26;99538.66;5060021;28;45385;-70
2022/03/13 02:27:50;;;;;;;;;3.00;1.00;;;;;12.24;62.44;99536.91;5059414;28;45303;-71
2022/03/13 02:30:21;;;;;;;;;1.00;1.00;;;;;12.17;62.07;99527.22;5060194;28;45711;-70
2022/03/13 02:32:47;;;;;;;;;2.00;0.00;;;;;12.16;63.06;99523.75;5056856;28;46730;-70
2022/03/13 02:35:17;;;;;;;;;1.00;0.00;;;;;12.22;62.82;99530.78;5059652;28;45485;-70
2022/03/13 02:37:42;;;;;;;;;1.00;0.33;;;;;12.17;61.11;99538.56;5059556;28;46049;-70
2022/03/13 02:40:29;;;;;;;;;1.00;1.00;;;;;12.16;62.81;99543.81;5059782;28;45262;-71
2022/03/13 02:42:56;;;;;;;;;1.67;0.33;;;;;12.11;63.64;99521.06;5055621;28;46258;-70
2022/03/13 02:45:35;;;;;;;;;1.00;0.00;;;;;12.07;63.86;99529.75;5058775;28;45575;-70
2022/03/13 02:48:03;;;;;;;;;0.67;0.00;;;;;12.12;64.16;99530.69;5058774;28;45324;-70
2022/03/13 02:50:30;;;;;;;;;1.75;1.00;;;;;12.13;63.50;99529.81;5058566;28;45345;-70
2022/03/13 02:52:56;;;;;;;;;2.50;1.00;;;;;12.09;62.87;99521.94;5058213;28;45576;-70
2022/03/13 02:55:22;;;;;;;;;3.00;1.00;;;;;12.10;63.72;99540.28;5058310;28;45713;-70
2022/03/13 02:57:48;;;;;;;;;2.00;1.00;;;;;12.07;62.97;99537.63;5059136;28;45495;-70
2022/03/13 03:00:17;;;;;;;;;2.67;1.00;;;;;12.08;63.12;99536.78;5058560;28;45512;-70
2022/03/13 03:02:43;;;;;;;;;4.00;0.67;;;;;12.13;63.57;99552.50;5050412;28;45477;-70
2022/03/13 03:05:10;;;;;;;;;3.75;1.00;;;;;12.07;62.58;99547.22;5058194;28;45418;-70
2022/03/13 03:07:36;;;;;;;;;0.67;0.00;;;;;12.12;63.19;99554.25;5058087;28;45382;-69
2022/03/13 03:10:09;;;;;;;;;0.67;0.00;;;;;12.06;63.79;99567.28;5058093;28;45508;-69
2022/03/13 03:12:35;;;;;;;;;5.00;0.67;;;;;12.09;64.09;99566.44;5057904;28;45524;-70
2022/03/13 03:15:01;;;;;;;;;2.00;1.00;;;;;12.01;64.67;99548.03;5058071;28;45473;-70
2022/03/13 03:17:27;;;;;;;;;1.33;0.00;;;;;11.98;64.80;99553.28;5058746;28;45556;-70
2022/03/13 03:19:52;;;;;;;;;1.67;1.00;;;;;11.98;65.04;99566.34;5058650;28;45949;-70
2022/03/13 03:22:18;;;;;;;;;0.00;0.00;;;;;11.85;66.34;99554.00;5057959;28;45618;-70
2022/03/13 03:24:44;;;;;;;;;1.67;0.67;;;;;11.71;67.12;99552.13;5057866;28;45418;-70
2022/03/13 03:27:09;;;;;;;;;1.00;0.00;;;;;11.82;67.56;99564.44;5056720;28;45553;-70
2022/03/13 03:29:35;;;;;;;;;1.00;0.75;;;;;11.71;68.73;99556.47;5057009;28;45536;-70
2022/03/13 03:32:02;;;;;;;;;2.33;0.67;;;;;11.67;67.11;99552.94;5058332;28;45612;-70
2022/03/13 03:34:28;;;;;;;;;1.00;0.00;;;;;11.70;67.76;99573.94;5057410;28;45402;-69
2022/03/13 03:36:57;;;;;;;;;1.00;0.00;;;;;11.70;64.98;99573.06;5057809;28;45299;-70
2022/03/13 03:39:23;;;;;;;;;0.33;0.00;;;;;11.68;66.98;99574.78;5057774;28;45470;-70
2022/03/13 03:41:51;;;;;;;;;2.67;1.00;;;;;11.61;67.49;99568.59;5056659;28;45446;-70
2022/03/13 03:44:18;;;;;;;;;2.00;1.00;;;;;11.46;66.56;99556.25;5058101;28;45635;-70
2022/03/13 03:46:45;;;;;;;;;5.00;1.00;;;;;11.61;65.70;99593.88;5057602;28;45520;-70
2022/03/13 03:49:11;;;;;;;;;1.00;1.00;;;;;11.58;69.35;99602.59;5057481;28;45455;-70
2022/03/13 03:51:37;;;;;;;;;4.25;3.00;;;;;11.48;69.59;99600.69;5057794;28;45589;-70
2022/03/13 03:54:04;;;;;;;;;8.25;5.00;;;;;11.55;69.82;99620.84;5057412;28;45479;-70
2022/03/13 03:56:30;;;;;;;;;4.00;2.75;;;;;11.57;70.07;99629.59;5057626;28;45551;-70
2022/03/13 03:58:56;;;;;;;;;2.00;0.00;;;;;11.58;69.44;99633.97;5058378;28;45521;-70
2022/03/13 04:01:22;;;;;;;;;2.67;1.00;;;;;11.61;70.12;99630.50;5058215;28;46299;-70
2022/03/13 04:03:48;;;;;;;;;1.25;1.00;;;;;11.59;69.58;99638.31;5056719;28;45344;-70
2022/03/13 04:06:14;;;;;;;;;4.00;3.00;;;;;11.64;69.97;99643.59;5057413;28;45302;-70
2022/03/13 04:08:40;;;;;;;;;1.00;1.00;;;;;11.58;70.38;99635.69;5058144;28;45394;-70
2022/03/13 04:11:08;;;;;;;;;3.50;3.00;;;;;11.62;69.96;99653.16;5057777;28;45416;-70
2022/03/13 04:13:38;;;;;;;;;1.00;1.00;;;;;11.67;69.66;99661.97;5057801;28;45458;-70
2022/03/13 04:16:06;;;;;;;;;2.00;2.00;;;;;11.67;70.12;99664.56;5056237;28;45836;-70
2022/03/13 04:18:31;;;;;;;;;2.25;1.50;;;;;11.66;70.93;99661.09;5057409;28;45488;-70
2022/03/13 04:20:58;;;;;;;;;2.00;0.00;;;;;11.58;66.25;99638.31;5057132;28;45445;-70
2022/03/13 04:23:23;;;;;;;;;0.00;0.00;;;;;11.45;67.58;99625.09;5057836;28;45308;-70
2022/03/13 04:25:49;;;;;;;;;1.67;1.00;;;;;11.46;69.15;99645.16;5057886;28;45337;-70
2022/03/13 04:28:15;;;;;;;;;2.50;1.50;;;;;11.41;68.86;99651.19;5056523;28;45422;-70
2022/03/13 04:30:40;;;;;;;;;2.00;1.00;;;;;11.27;68.32;99630.09;5064093;28;45768;-70
2022/03/13 04:33:07;;;;;;;;;0.33;0.00;;;;;11.33;66.05;99645.88;5037495;28;45582;-70
2022/03/13 04:35:33;;;;;;;;;1.00;1.00;;;;;11.32;66.21;99663.31;5040426;28;45388;-70
2022/03/13 04:37:59;;;;;;;;;0.00;0.00;;;;;11.29;64.75;99665.00;5057548;28;45451;-70
2022/03/13 04:40:25;;;;;;;;;1.67;0.67;;;;;11.21;66.62;99672.72;5057674;28;46091;-70
2022/03/13 04:42:50;;;;;;;;;2.00;1.75;;;;;11.16;66.94;99669.19;5057064;28;45478;-70
2022/03/13 04:45:18;;;;;;;;;2.00;1.50;;;;;11.16;66.55;99690.09;5057632;28;45462;-70
2022/03/13 04:47:44;;;;;;;;;5.00;4.00;;;;;11.04;65.58;99684.69;5057623;28;45363;-70
2022/03/13 04:50:10;;;;;;;;;4.75;4.00;;;;;11.02;66.84;99695.13;5056495;28;46043;-70
2022/03/13 04:52:35;;;;;;;;;3.00;3.00;;;;;11.02;65.48;99713.44;5056868;28;45232;-70
2022/03/13 04:55:02;;;;;;;;;4.25;4.25;;;;;10.97;65.74;99725.53;5056564;28;45881;-70
2022/03/13 04:57:27;;;;;;;;;1.00;1.00;;;;;10.92;66.13;99730.69;5057041;28;45404;-70
2022/03/13 04:59:53;;;;;;;;;3.00;2.75;;;;;10.90;66.79;99742.88;5057364;28;46250;-70
2022/03/13 05:02:18;;;;;;;;;1.00;1.00;;;;;10.85;66.17;99741.91;5057481;28;45445;-70
2022/03/13 05:04:44;;;;;;;;;2.50;1.75;;;;;10.58;65.69;99697.03;5056684;28;45493;-70
2022/03/13 05:07:10;;;;;;;;;2.75;2.75;;;;;10.68;66.04;99725.97;5056769;28;45422;-70
2022/03/13 05:09:37;;;;;;;;;15.50;14.75;;;;;10.65;66.68;99725.91;5056674;28;46271;-70
2022/03/13 05:12:05;;;;;;;;;12.00;12.00;;;;;10.72;66.92;99743.44;5055773;28;45718;-70
2022/03/13 05:14:31;;;;;;;;;6.00;5.50;;;;;10.68;66.60;99745.97;5056124;28;45531;-70
2022/03/13 05:16:58;;;;;;;;;10.00;9.75;;;;;10.68;66.99;99759.94;5055272;28;45410;-69
2022/03/13 05:19:23;;;;;;;;;0.75;0.75;;;;;10.63;68.52;99764.19;5055829;28;45370;-70
2022/03/13 05:21:49;;;;;;;;;1.33;1.33;;;;;10.65;68.90;99769.44;5055662;28;45555;-70
2022/03/13 05:24:14;;;;;;;;;0.00;0.00;;;;;10.69;68.31;99782.56;5057047;28;45729;-70
2022/03/13 05:26:40;;;;;;;;;0.00;0.00;;;;;10.66;69.22;99774.66;5055105;28;45567;-70
2022/03/13 05:29:06;;;;;;;;;0.00;0.00;;;;;10.62;69.30;99769.38;5056458;28;45516;-70
2022/03/13 05:31:31;;;;;;;;;13.00;12.75;;;;;10.73;69.18;99793.97;5056359;28;45454;-70
2022/03/13 05:33:57;;;;;;;;;1.75;1.00;;;;;10.72;68.39;99800.94;5056574;28;45433;-70
2022/03/13 05:36:22;;;;;;;;;8.25;5.75;;;;;10.67;68.30;99793.84;5056016;28;45446;-70
2022/03/13 05:38:48;;;;;;;;;0.00;0.00;;;;;10.64;68.08;99797.28;5056259;28;45536;-69
2022/03/13 05:41:14;;;;;;;;;0.00;0.00;;;;;10.52;68.91;99771.84;5056074;28;45488;-70
2022/03/13 05:43:41;;;;;;;;;0.00;0.00;;;;;10.73;68.38;99801.78;5056098;28;45363;-70
2022/03/13 05:46:06;;;;;;;;;1.75;1.75;;;;;10.75;69.03;99810.53;5057040;28;45394;-70
2022/03/13 05:48:32;;;;;;;;;0.00;0.00;;;;;10.70;69.90;99801.72;5056301;28;45441;-70
2022/03/13 05:50:58;;;;;;;;;1.67;0.00;;;;;10.73;69.57;99822.69;5056577;28;45607;-70
2022/03/13 05:53:23;;;;;;;;;0.00;0.00;;;;;10.63;69.89;99818.16;5057749;28;45560;-70
2022/03/13 05:55:49;;;;;;;;;0.00;0.00;;;;;10.74;70.42;99845.34;5057946;28;45835;-75
2022/03/13 05:58:15;;;;;;;;;0.00;0.00;;;;;10.64;70.62;99836.44;5057498;28;45519;-76
2022/03/13 06:00:41;;;;;;;;;0.67;0.67;;;;;10.62;70.24;99850.34;5057717;28;46035;-75
2022/03/13 06:03:08;;;;;;;;;0.33;0.00;;;;;10.62;70.47;99866.00;5057387;28;45386;-70
2022/03/13 06:05:37;;;;;;;;;0.00;0.00;;;;;10.74;69.46;99892.34;5057456;28;45592;-70
2022/03/13 06:08:03;;;;;;;;;0.33;0.33;;;;;10.54;67.47;99887.66;5057012;28;45411;-69
2022/03/13 06:10:29;;;;;;;;;0.00;0.00;;;;;10.39;67.40;99900.41;5054710;28;45505;-70
2022/03/13 06:12:55;;;;;;;;;0.00;0.00;;;;;10.38;67.85;99911.69;5057096;28;45362;-75
2022/03/13 06:15:20;;;;;;;;;0.00;0.00;;;;;10.24;66.96;99900.91;5057957;28;45705;-70
2022/03/13 06:17:48;;;;;;;;;0.00;0.00;;;;;10.16;67.35;99902.50;5057042;28;45538;-75
2022/03/13 06:20:15;;;;;;;;;0.00;0.00;;;;;10.19;67.76;99914.75;5057033;28;45460;-75
2022/03/13 06:22:43;;;;;;;;;0.00;0.00;;;;;10.16;67.53;99919.03;5057809;28;45426;-76
2022/03/13 06:25:11;;;;;;;;;0.25;0.00;;;;;10.13;67.56;99918.09;5056277;28;45386;-75
2022/03/13 06:27:38;;;;;;;;;0.00;0.00;;;;;10.08;67.49;99925.81;5057112;28;45925;-70
2022/03/13 06:30:16;;;;;;;;;0.00;0.00;;;;;10.14;67.59;99935.50;5056825;28;45462;-72
2022/03/13 06:32:44;;;;;;;;;0.00;0.00;;;;;10.07;67.95;99923.19;5055926;28;45561;-76
2022/03/13 06:35:11;;;;;;;;;4.00;3.75;;;;;9.95;67.88;99908.16;5056746;28;45309;-70
2022/03/13 06:37:38;;;;;;;;;3.50;3.50;;;;;10.20;67.20;99940.84;5056566;28;45319;-75
2022/03/13 06:40:06;;;;;;;;;0.00;0.00;;;;;10.13;67.09;99925.94;5056893;28;45547;-70
2022/03/13 06:42:32;;;;;;;;;0.00;0.00;;;;;10.16;66.56;99937.28;5054783;28;45440;-69
2022/03/13 06:44:58;;;;;;;;;0.75;0.00;;;;;10.19;66.06;99948.69;5057369;28;45365;-71
2022/03/13 06:47:24;;;;;;;;;1.00;0.00;;;;;10.12;66.47;99945.03;5056757;28;46143;-69
2022/03/13 06:49:49;;;;;;;;;3.00;3.00;;;;;10.06;66.34;99943.16;5054022;28;45397;-69
2022/03/13 06:52:15;;;;;;;;;2.00;2.00;;;;;10.10;66.31;99951.94;5056748;28;45391;-69
2022/03/13 06:54:43;;;;;;;;;1.00;1.00;;;;;10.19;65.68;99960.00;5056839;28;45659;-69
2022/03/13 06:57:09;;;;;;;;;3.00;3.00;;;;;10.13;66.39;99938.97;5055813;28;45492;-70
2022/03/13 06:59:34;;;;;;;;;1.00;1.00;;;;;10.14;66.39;99944.22;5056384;28;45438;-70
2022/03/13 07:02:00;;;;;;;;;4.00;2.00;;;;;10.11;66.79;99941.56;5056528;28;45510;-74
2022/03/13 07:04:26;;;;;;;;;1.00;0.00;;;;;10.15;66.37;99947.72;5057346;28;45913;-74
2022/03/13 07:06:51;;;;;;;;;1.50;1.00;;;;;10.14;65.86;99943.34;5056361;28;45879;-75
2022/03/13 07:09:17;;;;;;;;;16.00;15.75;;;;;10.10;66.26;99951.94;5056278;28;45600;-72
2022/03/13 07:11:47;;;;;;;;;7.50;7.00;;;;;10.19;66.14;99972.16;5056272;28;45553;-70
2022/03/13 07:14:13;;;;;;;;;3.75;3.00;;;;;10.11;66.00;99972.88;5053693;28;45526;-73
2022/03/13 07:16:39;;;;;;;;;1.50;1.50;;;;;10.01;66.77;99962.16;5055010;28;45937;-75
2022/03/13 07:19:04;;;;;;;;;4.75;3.00;;;;;9.82;67.10;99935.66;5056186;28;45557;-69
2022/03/13 07:21:30;;;;;;;;;1.75;1.75;;;;;10.08;66.57;99988.44;5058221;28;45477;-70
2022/03/13 07:23:56;;;;;;;;;2.50;2.00;;;;;10.03;67.44;99990.09;5057720;28;45506;-70
2022/03/13 07:26:21;;;;;;;;;1.00;1.00;;;;;9.95;67.22;99979.47;5057270;28;46399;-71
2022/03/13 07:28:47;;;;;;;;;1.00;0.00;;;;;10.05;66.83;100001.44;5057990;28;45464;-70
2022/03/13 07:31:12;;;;;;;;;1.00;0.00;;;;;10.02;67.84;100005.69;5057433;28;45452;-70
2022/03/13 07:33:38;;;;;;;;;1.00;1.00;;;;;9.90;67.89;99990.63;5057932;28;45367;-76
2022/03/13 07:36:04;;;;;;;;;3.00;3.00;;;;;10.06;68.78;100028.41;5057291;28;45374;-70
2022/03/13 07:38:30;;;;;;;;;9.75;9.75;;;;;10.05;68.50;100026.66;5056296;28;45599;-76
2022/03/13 07:40:55;;;;;;;;;16.00;14.75;;;;;10.06;68.81;100031.91;5056953;28;45425;-76
2022/03/13 07:43:21;;;;;;;;;9.00;9.00;;;;;10.10;67.46;100033.72;5057835;28;45365;-75
2022/03/13 07:45:46;;;;;;;;;11.25;11.00;;;;;10.05;67.61;100013.63;5057293;28;45457;-71
2022/03/13 07:48:12;;;;;;;;;14.25;13.25;;;;;10.25;68.94;100045.41;5057779;28;45404;-71
2022/03/13 07:50:39;;;;;;;;;10.50;10.00;;;;;10.23;68.20;100031.44;5057066;28;45502;-71
2022/03/13 07:53:04;;;;;;;;;3.00;3.00;;;;;10.20;66.74;100027.00;5057504;28;45583;-71
2022/03/13 07:55:30;;;;;;;;;3.00;3.00;;;;;10.22;67.32;100029.66;5056775;28;46104;-70
2022/03/13 07:57:56;;;;;;;;;3.25;3.00;;;;;10.25;66.76;100034.97;5057109;28;45512;-71
2022/03/13 08:00:22;;;;;;;;;2.00;2.00;;;;;10.26;66.31;100039.31;5056907;28;45430;-71
2022/03/13 08:02:49;;;;;;;;;3.00;3.00;;;;;10.31;65.96;100046.44;5057393;28;45512;-72
2022/03/13 08:05:18;;;;;;;;;4.25;3.25;;;;;10.28;67.02;100042.84;5056878;28;45994;-71
2022/03/13 08:07:44;;;;;;;;;9.25;9.25;;;;;10.29;66.39;100047.22;5057167;28;45457;-71
2022/03/13 08:10:11;;;;;;;;;29.75;28.75;;;;;10.33;66.57;100060.41;5056830;28;45314;-71
2022/03/13 08:12:38;;;;;;;;;29.00;28.50;;;;;10.30;67.18;100054.22;5056859;28;45343;-71
2022/03/13 08:15:09;;;;;;;;;18.25;17.50;;;;;10.36;66.03;100054.38;5056536;28;45647;-71
2022/03/13 08:17:35;;;;;;;;;24.00;20.75;;;;;10.26;66.55;100053.25;5054164;28;45589;-72
2022/03/13 08:20:02;;;;;;;;;13.25;13.00;;;;;10.42;66.32;100078.00;5055384;28;45428;-73
2022/03/13 08:22:27;;;;;;;;;12.25;11.25;;;;;10.40;66.51;100073.59;5054963;28;45628;-73
2022/03/13 08:24:53;;;;;;;;;2.25;2.25;;;;;10.42;65.40;100070.16;5054997;28;46079;-73
2022/03/13 08:27:19;;;;;;;;;2.00;2.00;;;;;10.46;65.32;100082.44;5054812;28;45583;-74
2022/03/13 08:29:44;;;;;;;;;8.00;7.25;;;;;10.44;64.99;100081.53;5055096;28;45442;-70
2022/03/13 08:32:10;;;;;;;;;5.50;5.00;;;;;10.44;64.83;100076.31;5053402;28;45931;-77
2022/03/13 08:34:38;;;;;;;;;5.50;4.75;;;;;10.49;65.05;100092.09;5049099;28;45492;-75
2022/03/13 08:37:04;;;;;;;;;9.00;8.00;;;;;10.59;65.15;100101.91;5052779;28;45743;-70
2022/03/13 08:39:30;;;;;;;;;9.00;7.75;;;;;10.59;64.94;100087.97;5054269;28;45611;-75
2022/03/13 08:41:56;;;;;;;;;6.00;6.00;;;;;10.65;64.75;100099.44;5054609;28;45541;-75
2022/03/13 08:44:21;;;;;;;;;16.00;14.75;;;;;10.13;64.74;99989.44;5053789;28;45414;-74
2022/03/13 08:46:47;;;;;;;;;12.25;9.00;;;;;10.90;64.04;100099.97;5053209;28;45450;-70
2022/03/13 08:49:14;;;;;;;;;3.75;3.75;;;;;11.07;64.14;100092.50;5053981;28;45497;-72
2022/03/13 08:51:40;;;;;;;;;10.25;9.50;;;;;11.21;63.65;100087.53;5052174;28;45466;-70
2022/03/13 08:54:07;;;;;;;;;7.50;7.25;;;;;11.29;63.22;100081.59;5055140;28;45408;-68
2022/03/13 08:56:33;;;;;;;;;5.00;4.00;;;;;11.49;62.78;100102.03;5056315;28;45386;-71
2022/03/13 08:58:58;;;;;;;;;13.25;12.50;;;;;11.59;63.39;100103.09;5055436;28;45402;-69
2022/03/13 09:01:25;;;;;;;;;7.00;7.00;;;;;11.68;61.29;100114.63;5056778;28;45358;-71
2022/03/13 09:03:51;;;;;;;;;9.75;9.75;;;;;11.65;62.04;100092.75;5055740;28;45627;-69
2022/03/13 09:06:17;;;;;;;;;7.75;7.00;;;;;11.80;61.55;100115.66;5054068;28;45449;-69
2022/03/13 09:08:43;;;;;;;;;5.00;4.50;;;;;11.69;61.64;100105.03;5054045;28;45566;-70
2022/03/13 09:11:09;;;;;;;;;2.00;2.00;;;;;11.58;60.90;100104.84;5051694;28;45360;-71
2022/03/13 09:13:38;;;;;;;;;2.00;2.00;;;;;11.55;61.37;100118.72;5026136;27;46273;-70
2022/03/13 09:16:04;;;;;;;;;3.75;3.00;;;;;11.51;61.44;100110.78;5034975;28;45445;-70
2022/03/13 09:18:32;;;;;;;;;3.50;3.50;;;;;11.46;61.95;100122.88;5036170;28;45563;-70
2022/03/13 09:20:59;;;;;;;;;9.00;7.50;;;;;11.46;62.02;100146.44;5034499;28;45450;-70
2022/03/13 09:23:24;;;;;;;;;6.75;4.75;;;;;11.35;62.35;100147.09;5029626;28;46419;-69
2022/03/13 09:25:52;;;;;;;;;2.00;1.00;;;;;11.05;61.87;100151.69;5016487;28;45772;-70
2022/03/13 09:28:19;;;;;;;;;0.00;0.00;;;;;10.87;61.86;100163.50;5018542;28;45426;-68
2022/03/13 09:30:45;;;;;;;;;0.67;0.00;;;;;10.75;62.21;100178.91;5033951;28;45553;-70
2022/03/13 09:33:11;;;;;;;;;1.00;1.00;;;;;10.48;62.92;100161.72;5022516;28;45463;-70
2022/03/13 09:35:37;;;;;;;;;1.50;1.50;;;;;10.57;63.62;100183.72;5036629;28;45556;-73
2022/03/13 09:38:03;;;;;;;;;1.75;1.00;;;;;10.52;62.65;100187.09;5032469;28;45474;-73
2022/03/13 09:40:28;;;;;;;;;1.33;0.33;;;;;10.34;63.45;100197.97;5027826;28;45474;-72
2022/03/13 09:42:55;;;;;;;;;1.00;1.00;;;;;10.40;64.29;100220.72;5025026;28;45383;-72
2022/03/13 09:45:20;;;;;;;;;0.75;0.00;;;;;10.35;64.11;100207.53;5026757;28;45372;-71
2022/03/13 09:47:47;;;;;;;;;2.00;1.75;;;;;10.35;63.86;100199.72;5025871;28;45485;-71
2022/03/13 09:50:12;;;;;;;;;1.00;1.00;;;;;10.45;63.31;100213.88;5037263;28;45528;-75
2022/03/13 09:52:40;;;;;;;;;6.75;6.75;;;;;10.53;63.90;100207.13;5036370;28;45524;-71
2022/03/13 09:55:08;;;;;;;;;4.75;4.25;;;;;10.50;63.59;100216.59;5035568;28;45570;-71
2022/03/13 09:57:36;;;;;;;;;6.50;5.00;;;;;10.67;62.71;100211.81;5034906;28;45575;-71
2022/03/13 10:00:12;;;;;;;;;1.00;1.00;;;;;10.75;62.33;100216.34;5035844;28;45545;-71
2022/03/13 10:02:38;;;;;;;;;36.25;32.00;;;;;10.99;62.57;100212.56;5037398;28;46194;-73
2022/03/13 10:05:11;;;;;;;;;21.00;20.00;;;;;11.10;61.75;100223.25;5038336;28;45304;-70
2022/03/13 10:07:58;;;;;;;;;22.50;20.00;;;;;11.18;61.67;100219.09;5034829;28;45623;-70
2022/03/13 10:10:40;;;;;;;;;18.50;17.50;;;;;11.28;60.95;100215.81;5039506;28;45415;-72
2022/03/13 10:13:06;;;;;;;;;21.00;16.25;;;;;11.44;60.30;100218.75;5019297;28;46083;-71
2022/03/13 10:15:49;;;;;;;;;24.25;23.00;;;;;11.53;60.36;100225.06;5022411;28;45329;-76
2022/03/13 10:18:23;;;;;;;;;19.50;16.75;;;;;11.57;60.60;100218.16;5029726;28;45308;-74
2022/03/13 10:20:51;;;;;;;;;26.00;22.50;;;;;11.66;59.91;100230.56;5038612;28;45482;-72
2022/03/13 10:23:19;;;;;;;;;13.50;12.00;;;;;11.69;59.76;100221.03;5039117;28;46252;-77
2022/03/13 10:25:47;;;;;;;;;16.50;14.75;;;;;11.79;59.45;100216.84;5039236;28;45418;-76
2022/03/13 10:28:20;;;;;;;;;17.75;16.25;;;;;11.88;58.56;100193.50;5039116;28;45469;-74
2022/03/13 10:31:13;;;;;;;;;12.50;10.50;;;;;12.39;57.57;100215.38;5038640;28;45292;-71
2022/03/13 10:33:44;;;;;;;;;13.00;12.25;;;;;12.76;57.56;100216.00;5016581;28;46396;-71
2022/03/13 10:36:21;;;;;;;;;15.25;14.75;;;;;13.32;55.43;100220.34;5024356;28;45482;-72
2022/03/13 10:38:49;;;;;;;;;4.50;4.50;;;;;14.31;52.89;100209.22;5038260;28;45582;-73
2022/03/13 10:41:16;;;;;;;;;2.00;2.00;;;;;14.84;51.76;100198.31;5038504;28;45409;-72
2022/03/13 10:43:58;;;;;;;;;4.00;3.00;;;;;15.35;51.03;100210.88;5037647;28;45505;-72
2022/03/13 10:46:31;;;;;;;;;1.00;1.00;;;;;16.50;49.22;100205.94;5037947;28;45371;-73
2022/03/13 10:48:59;;;;;;;;;4.00;1.33;;;;;17.87;44.95;100172.19;5038526;28;45497;-77
2022/03/13 10:51:36;;;;;;;;;2.00;2.00;;;;;19.81;41.45;100188.00;5035995;28;45414;-71
2022/03/13 10:54:03;;;;;;;;;1.67;1.67;;;;;21.39;38.31;100189.81;5038684;28;45582;-71
2022/03/13 10:56:29;;;;;;;;;3.00;2.67;;;;;22.04;36.35;100146.75;5038354;28;45518;-71
2022/03/13 10:58:56;;;;;;;;;1.00;1.00;;;;;22.68;35.64;100154.09;5038493;28;45505;-72
2022/03/13 11:01:25;;;;;;;;;3.33;3.33;;;;;22.72;34.70;100155.75;5038178;28;45485;-71
2022/03/13 11:03:54;;;;;;;;;4.00;3.33;;;;;23.06;34.27;100160.19;5037937;28;45433;-70
2022/03/13 11:06:24;;;;;;;;;3.33;3.33;;;;;23.29;33.53;100159.56;5037628;28;45436;-69
2022/03/13 11:08:54;;;;;;;;;4.00;3.33;;;;;23.43;33.02;100155.56;5037788;28;45322;-72
2022/03/13 11:11:24;;;;;;;;;2.33;1.67;;;;;23.57;34.25;100155.16;5038087;28;45488;-69
2022/03/13 11:13:52;;;;;;;;;1.33;1.00;;;;;23.69;32.95;100142.38;5037976;28;46160;-69
2022/03/13 11:16:30;;;;;;;;;3.00;2.00;;;;;23.72;31.96;100136.97;5037891;28;45501;-69
2022/03/13 11:18:58;;;;;;;;;4.33;4.00;;;;;23.63;32.65;100138.13;5038591;28;45350;-69
2022/03/13 11:21:24;;;;;;;;;1.00;1.00;;;;;23.31;32.27;100131.94;5038812;28;45364;-69
2022/03/13 11:23:50;;;;;;;;;0.67;0.67;;;;;23.08;32.00;100134.38;5038599;28;45493;-69
2022/03/13 11:26:18;;;;;;;;;0.00;0.00;;;;;22.00;34.95;100138.00;5038510;28;45368;-69
2022/03/13 11:28:46;;;;;;;;;0.67;0.67;;;;;21.46;34.43;100148.94;5038552;28;45374;-70